Landsort, Sweden

2:51 AM CET on January 27, 2015 (GMT +0100)
Skavsta | Change Station
CLOSE
Current Station
Airport
Location: Nykoping Skavsta,
Elevation: 141 ft
Nearby Weather Stations

Elev 141 ft 58.79 °N, 16.91 °E | Updated 31 minutes ago

Rain
Rain
32 °F
Feels Like 29 °F
N
4
Wind Variable Wind from SSE

Today
High -- | Low -- °F
--% Chance of Precip.
Yesterday
High -- | Low -- °F
Precip. -- in
8:07 AM 3:56 PM
Waxing Crescent, 49% visible
Pressure 29.65 in
Visibility 3.1 miles
Clouds Mostly Cloudy 500 ft
Windchill 29 °F
Dew Point 32 °F
Humidity 100%
Rainfall 0.00 in
Snow Depth Not available.
UV 0 out of 12
Pollen Not available.
Air Quality Not available.
Flu Activity Not available.
METAR ESKN 270120Z 16003KT 5000 -SNRA BKN005 00/00 Q1004 R26/690235

More Conditions Fewer Conditions

Pressure 29.65 in
Visibility 3.1 miles
Clouds Mostly Cloudy 500 ft
Windchill 29 °F
Dew Point 32 °F
Humidity 100%
Rainfall 0.00 in
Snow Depth Not available.
UV 0 out of 12
Pollen Not available.
Air Quality Not available.
Flu Activity Not available.
METAR ESKN 270120Z 16003KT 5000 -SNRA BKN005 00/00 Q1004 R26/690235

More Conditions Fewer Conditions

10-Day Weather Forecast

Almanac

Astronomy

Jan. 27, 2015 Rise Set
Actual Time
Civil Twilight
Nautical Twilight
Astronomical Twilight
Moon
Length of Visible Light
Length of Day
Tomorrow will be .
, % of the Moon is Illuminated

Today's Extremes

Country Highs Country Lows

Community

WunderPhotos

Upload Photos

1,790,451 photos uploaded!

WunderBlogs® & News

Nearby

Air Quality

  Air Quality AQ Index Pollutant
Not available.

Snow Depth

Station Depth Elevation

Earthquake Activity

City Distance Mag. Time & Date
Minimum magnitude displayed is 2.5.

Coastal Water Temperatures

Place Temperature

Nearby Weather Stations